sensor_id;sensor_type;location;lat;lon;timestamp;pressure;altitude;pressure_sealevel;temperature;humidity
58622;BME280;44389;51.578;5.456;2023-08-06T00:00:24;100228.38;;;13.83;100.00
58622;BME280;44389;51.578;5.456;2023-08-06T00:02:50;100233.56;;;13.81;100.00
58622;BME280;44389;51.578;5.456;2023-08-06T00:05:16;100230.94;;;13.80;100.00
58622;BME280;44389;51.578;5.456;2023-08-06T00:07:46;100233.56;;;13.81;100.00
58622;BME280;44389;51.578;5.456;2023-08-06T00:10:12;100232.69;;;13.82;100.00
58622;BME280;44389;51.578;5.456;2023-08-06T00:12:37;100230.97;;;13.81;100.00
58622;BME280;44389;51.578;5.456;2023-08-06T00:15:03;100230.09;;;13.81;100.00
58622;BME280;44389;51.578;5.456;2023-08-06T00:17:28;100229.28;;;13.87;100.00
58622;BME280;44389;51.578;5.456;2023-08-06T00:19:53;100229.25;;;13.83;100.00
58622;BME280;44389;51.578;5.456;2023-08-06T00:22:19;100222.31;;;13.81;100.00
58622;BME280;44389;51.578;5.456;2023-08-06T00:24:44;100219.75;;;13.84;100.00
58622;BME280;44389;51.578;5.456;2023-08-06T00:27:09;100215.44;;;13.86;100.00
58622;BME280;44389;51.578;5.456;2023-08-06T00:29:35;100215.44;;;13.85;100.00
58622;BME280;44389;51.578;5.456;2023-08-06T00:32:00;100217.19;;;13.86;100.00
58622;BME280;44389;51.578;5.456;2023-08-06T00:34:25;100218.91;;;13.87;100.00
58622;BME280;44389;51.578;5.456;2023-08-06T00:36:51;100218.91;;;13.87;100.00
58622;BME280;44389;51.578;5.456;2023-08-06T00:39:16;100218.91;;;13.87;100.00
58622;BME280;44389;51.578;5.456;2023-08-06T00:41:41;100218.03;;;13.85;100.00
58622;BME280;44389;51.578;5.456;2023-08-06T00:44:07;100208.53;;;13.85;100.00
58622;BME280;44389;51.578;5.456;2023-08-06T00:46:33;100218.03;;;13.86;100.00
58622;BME280;44389;51.578;5.456;2023-08-06T00:48:59;100209.41;;;13.86;100.00
58622;BME280;44389;51.578;5.456;2023-08-06T00:51:25;100206.81;;;13.86;100.00
58622;BME280;44389;51.578;5.456;2023-08-06T00:53:52;100215.44;;;13.85;100.00
58622;BME280;44389;51.578;5.456;2023-08-06T00:56:17;100205.97;;;13.87;100.00
58622;BME280;44389;51.578;5.456;2023-08-06T00:58:44;100203.38;;;13.87;100.00
58622;BME280;44389;51.578;5.456;2023-08-06T01:01:09;100204.22;;;13.86;100.00
58622;BME280;44389;51.578;5.456;2023-08-06T01:03:35;100204.22;;;13.87;100.00
58622;BME280;44389;51.578;5.456;2023-08-06T01:06:00;100205.09;;;13.88;100.00
58622;BME280;44389;51.578;5.456;2023-08-06T01:13:39;100205.97;;;13.88;100.00
58622;BME280;44389;51.578;5.456;2023-08-06T01:16:07;100201.63;;;13.89;100.00
58622;BME280;44389;51.578;5.456;2023-08-06T01:18:34;100199.03;;;13.84;100.00
58622;BME280;44389;51.578;5.456;2023-08-06T01:21:00;100207.66;;;13.83;100.00
58622;BME280;44389;51.578;5.456;2023-08-06T01:23:25;100207.66;;;13.83;100.00
58622;BME280;44389;51.578;5.456;2023-08-06T01:26:10;100210.25;;;13.81;100.00
58622;BME280;44389;51.578;5.456;2023-08-06T01:28:40;100205.03;;;13.78;100.00
58622;BME280;44389;51.578;5.456;2023-08-06T01:31:14;100210.22;;;13.78;100.00
58622;BME280;44389;51.578;5.456;2023-08-06T01:33:43;100210.22;;;13.75;100.00
58622;BME280;44389;51.578;5.456;2023-08-06T01:36:10;100203.28;;;13.76;100.00
58622;BME280;44389;51.578;5.456;2023-08-06T01:38:36;100206.72;;;13.73;100.00
58622;BME280;44389;51.578;5.456;2023-08-06T01:41:01;100196.38;;;13.73;100.00
58622;BME280;44389;51.578;5.456;2023-08-06T01:43:26;100202.44;;;13.75;100.00
58622;BME280;44389;51.578;5.456;2023-08-06T01:45:52;100206.72;;;13.73;100.00
58622;BME280;44389;51.578;5.456;2023-08-06T01:48:17;100200.69;;;13.73;100.00
58622;BME280;44389;51.578;5.456;2023-08-06T01:50:42;100205.03;;;13.74;100.00
58622;BME280;44389;51.578;5.456;2023-08-06T01:53:08;100205.88;;;13.74;100.00
58622;BME280;44389;51.578;5.456;2023-08-06T01:55:33;100209.34;;;13.76;100.00
58622;BME280;44389;51.578;5.456;2023-08-06T01:57:58;100198.97;;;13.75;100.00
58622;BME280;44389;51.578;5.456;2023-08-06T02:00:23;100202.44;;;13.77;100.00
58622;BME280;44389;51.578;5.456;2023-08-06T02:02:49;100202.44;;;13.77;100.00
58622;BME280;44389;51.578;5.456;2023-08-06T02:05:14;100203.28;;;13.74;100.00
58622;BME280;44389;51.578;5.456;2023-08-06T02:07:39;100208.47;;;13.74;100.00
58622;BME280;44389;51.578;5.456;2023-08-06T02:10:05;100203.28;;;13.74;100.00
58622;BME280;44389;51.578;5.456;2023-08-06T02:12:31;100203.28;;;13.73;100.00
58622;BME280;44389;51.578;5.456;2023-08-06T02:14:56;100204.13;;;13.73;100.00
58622;BME280;44389;51.578;5.456;2023-08-06T02:17:21;100203.34;;;13.80;100.00
58622;BME280;44389;51.578;5.456;2023-08-06T02:19:47;100198.09;;;13.71;100.00
58622;BME280;44389;51.578;5.456;2023-08-06T02:22:12;100204.13;;;13.73;100.00
58622;BME280;44389;51.578;5.456;2023-08-06T02:24:38;100208.47;;;13.73;100.00
58622;BME280;44389;51.578;5.456;2023-08-06T02:27:03;100204.19;;;13.76;100.00
58622;BME280;44389;51.578;5.456;2023-08-06T02:29:29;100204.13;;;13.75;100.00
58622;BME280;44389;51.578;5.456;2023-08-06T02:31:54;100200.69;;;13.73;100.00
58622;BME280;44389;51.578;5.456;2023-08-06T02:34:19;100205.88;;;13.77;100.00
58622;BME280;44389;51.578;5.456;2023-08-06T02:36:44;100198.97;;;13.73;100.00
58622;BME280;44389;51.578;5.456;2023-08-06T02:39:10;100202.44;;;13.77;100.00
58622;BME280;44389;51.578;5.456;2023-08-06T02:41:35;100198.13;;;13.77;100.00
58622;BME280;44389;51.578;5.456;2023-08-06T02:44:00;100191.22;;;13.79;100.00
58622;BME280;44389;51.578;5.456;2023-08-06T02:46:26;100191.22;;;13.79;100.00
58622;BME280;44389;51.578;5.456;2023-08-06T02:48:51;100192.13;;;13.83;100.00
58622;BME280;44389;51.578;5.456;2023-08-06T02:51:16;100187.78;;;13.85;100.00
58622;BME280;44389;51.578;5.456;2023-08-06T02:53:42;100185.22;;;13.85;100.00
58622;BME280;44389;51.578;5.456;2023-08-06T02:56:07;100189.56;;;13.89;100.00
58622;BME280;44389;51.578;5.456;2023-08-06T02:58:32;100192.16;;;13.91;100.00
58622;BME280;44389;51.578;5.456;2023-08-06T03:01:04;100190.44;;;13.90;100.00
58622;BME280;44389;51.578;5.456;2023-08-06T03:03:31;100187.84;;;13.90;100.00
58622;BME280;44389;51.578;5.456;2023-08-06T03:05:56;100190.44;;;13.88;100.00
58622;BME280;44389;51.578;5.456;2023-08-06T03:08:22;100192.97;;;13.85;100.00
58622;BME280;44389;51.578;5.456;2023-08-06T03:10:49;100183.50;;;13.86;100.00
58622;BME280;44389;51.578;5.456;2023-08-06T03:13:15;100188.69;;;13.87;100.00
58622;BME280;44389;51.578;5.456;2023-08-06T03:15:40;100193.00;;;13.87;100.00
58622;BME280;44389;51.578;5.456;2023-08-06T03:18:06;100198.19;;;13.87;100.00
58622;BME280;44389;51.578;5.456;2023-08-06T03:20:34;100193.88;;;13.89;100.00
58622;BME280;44389;51.578;5.456;2023-08-06T03:22:59;100190.38;;;13.82;100.00
58622;BME280;44389;51.578;5.456;2023-08-06T03:25:25;100196.44;;;13.86;100.00
58622;BME280;44389;51.578;5.456;2023-08-06T03:27:50;100193.88;;;13.86;100.00
58622;BME280;44389;51.578;5.456;2023-08-06T03:30:15;100189.53;;;13.85;100.00
58622;BME280;44389;51.578;5.456;2023-08-06T03:32:41;100193.84;;;13.84;100.00
58622;BME280;44389;51.578;5.456;2023-08-06T03:35:06;100196.44;;;13.86;100.00
58622;BME280;44389;51.578;5.456;2023-08-06T03:37:32;100199.03;;;13.86;100.00
58622;BME280;44389;51.578;5.456;2023-08-06T03:39:57;100186.94;;;13.85;100.00
58622;BME280;44389;51.578;5.456;2023-08-06T03:42:22;100191.28;;;13.86;100.00
58622;BME280;44389;51.578;5.456;2023-08-06T03:44:48;100190.38;;;13.83;100.00
58622;BME280;44389;51.578;5.456;2023-08-06T03:47:13;100187.84;;;13.87;100.00
58622;BME280;44389;51.578;5.456;2023-08-06T03:49:39;100192.97;;;13.83;100.00
58622;BME280;44389;51.578;5.456;2023-08-06T03:52:05;100187.78;;;13.83;100.00
58622;BME280;44389;51.578;5.456;2023-08-06T03:54:30;100194.72;;;13.83;100.00
58622;BME280;44389;51.578;5.456;2023-08-06T03:56:56;100196.41;;;13.79;100.00
58622;BME280;44389;51.578;5.456;2023-08-06T03:59:21;100199.84;;;13.78;100.00
58622;BME280;44389;51.578;5.456;2023-08-06T04:01:46;100199.00;;;13.78;100.00
58622;BME280;44389;51.578;5.456;2023-08-06T04:04:12;100209.34;;;13.78;100.00
58622;BME280;44389;51.578;5.456;2023-08-06T04:06:37;100199.00;;;13.79;100.00
58622;BME280;44389;51.578;5.456;2023-08-06T04:09:02;100208.47;;;13.77;100.00
58622;BME280;44389;51.578;5.456;2023-08-06T04:11:28;100204.19;;;13.81;100.00
58622;BME280;44389;51.578;5.456;2023-08-06T04:13:53;100208.47;;;13.77;100.00
58622;BME280;44389;51.578;5.456;2023-08-06T04:16:20;100203.34;;;13.80;100.00
58622;BME280;44389;51.578;5.456;2023-08-06T04:18:45;100205.88;;;13.77;100.00
58622;BME280;44389;51.578;5.456;2023-08-06T04:21:11;100215.41;;;13.78;100.00
58622;BME280;44389;51.578;5.456;2023-08-06T04:23:36;100210.22;;;13.78;100.00
58622;BME280;44389;51.578;5.456;2023-08-06T04:26:01;100214.59;;;13.84;100.00
58622;BME280;44389;51.578;5.456;2023-08-06T04:28:27;100215.44;;;13.85;100.00
58622;BME280;44389;51.578;5.456;2023-08-06T04:30:52;100212.84;;;13.81;100.00
58622;BME280;44389;51.578;5.456;2023-08-06T04:33:19;100218.03;;;13.85;100.00
58622;BME280;44389;51.578;5.456;2023-08-06T04:35:44;100217.19;;;13.86;100.00
58622;BME280;44389;51.578;5.456;2023-08-06T04:38:09;100224.94;;;13.87;100.00
58622;BME280;44389;51.578;5.456;2023-08-06T04:40:35;100224.94;;;13.87;100.00
58622;BME280;44389;51.578;5.456;2023-08-06T04:43:01;100227.53;;;13.86;100.00
58622;BME280;44389;51.578;5.456;2023-08-06T04:45:26;100218.91;;;13.90;100.00
58622;BME280;44389;51.578;5.456;2023-08-06T04:47:52;100220.66;;;13.92;100.00
58622;BME280;44389;51.578;5.456;2023-08-06T04:50:19;100226.69;;;13.93;100.00
58622;BME280;44389;51.578;5.456;2023-08-06T04:52:44;100217.22;;;13.92;100.00
58622;BME280;44389;51.578;5.456;2023-08-06T04:55:09;100221.50;;;13.91;100.00
58622;BME280;44389;51.578;5.456;2023-08-06T04:57:34;100218.94;;;13.93;100.00
58622;BME280;44389;51.578;5.456;2023-08-06T05:00:00;100224.16;;;13.96;100.00
58622;BME280;44389;51.578;5.456;2023-08-06T05:02:25;100219.81;;;13.96;100.00
58622;BME280;44389;51.578;5.456;2023-08-06T05:04:50;100218.97;;;13.99;100.00
58622;BME280;44389;51.578;5.456;2023-08-06T05:07:16;100228.53;;;14.06;100.00
58622;BME280;44389;51.578;5.456;2023-08-06T05:09:41;100235.44;;;14.12;100.00
58622;BME280;44389;51.578;5.456;2023-08-06T05:12:06;100235.47;;;14.18;100.00
58622;BME280;44389;51.578;5.456;2023-08-06T05:14:32;100231.13;;;14.11;100.00
58622;BME280;44389;51.578;5.456;2023-08-06T05:16:57;100235.47;;;14.18;100.00
58622;BME280;44389;51.578;5.456;2023-08-06T05:19:22;100251.03;;;14.21;100.00
58622;BME280;44389;51.578;5.456;2023-08-06T05:21:48;100262.28;;;14.25;100.00
58622;BME280;44389;51.578;5.456;2023-08-06T05:24:13;100259.69;;;14.25;100.00
58622;BME280;44389;51.578;5.456;2023-08-06T05:26:38;100265.78;;;14.27;100.00
58622;BME280;44389;51.578;5.456;2023-08-06T05:29:04;100262.31;;;14.29;100.00
58622;BME280;44389;51.578;5.456;2023-08-06T05:31:29;100260.59;;;14.33;100.00
58622;BME280;44389;51.578;5.456;2023-08-06T05:33:55;100270.13;;;14.37;100.00
58622;BME280;44389;51.578;5.456;2023-08-06T05:36:20;100264.09;;;14.44;100.00
58622;BME280;44389;51.578;5.456;2023-08-06T05:38:46;100271.03;;;14.42;100.00
58622;BME280;44389;51.578;5.456;2023-08-06T05:41:12;100278.84;;;14.52;100.00
58622;BME280;44389;51.578;5.456;2023-08-06T05:43:37;100281.47;;;14.61;100.00
58622;BME280;44389;51.578;5.456;2023-08-06T05:46:02;100281.53;;;14.67;100.00
58622;BME280;44389;51.578;5.456;2023-08-06T05:48:27;100290.19;;;14.72;100.00
58622;BME280;44389;51.578;5.456;2023-08-06T05:50:53;100295.41;;;14.80;100.00
58622;BME280;44389;51.578;5.456;2023-08-06T05:53:18;100297.13;;;14.86;100.00
58622;BME280;44389;51.578;5.456;2023-08-06T05:55:44;100304.13;;;14.99;100.00
58622;BME280;44389;51.578;5.456;2023-08-06T05:58:10;100295.47;;;15.06;100.00
58622;BME280;44389;51.578;5.456;2023-08-06T06:00:35;100308.47;;;15.19;100.00
58622;BME280;44389;51.578;5.456;2023-08-06T06:03:01;100298.09;;;15.19;100.00
58622;BME280;44389;51.578;5.456;2023-08-06T06:05:27;100301.59;;;15.30;100.00
58622;BME280;44389;51.578;5.456;2023-08-06T06:07:52;100307.63;;;15.34;100.00
58622;BME280;44389;51.578;5.456;2023-08-06T06:10:17;100311.09;;;15.43;100.00
58622;BME280;44389;51.578;5.456;2023-08-06T06:12:43;100314.59;;;15.45;100.00
58622;BME280;44389;51.578;5.456;2023-08-06T06:15:09;100315.44;;;15.49;100.00
58622;BME280;44389;51.578;5.456;2023-08-06T06:17:34;100321.50;;;15.45;100.00
58622;BME280;44389;51.578;5.456;2023-08-06T06:19:59;100328.41;;;15.38;100.00
58622;BME280;44389;51.578;5.456;2023-08-06T06:22:25;100333.59;;;15.27;100.00
58622;BME280;44389;51.578;5.456;2023-08-06T06:24:50;100332.72;;;15.25;100.00
58622;BME280;44389;51.578;5.456;2023-08-06T06:27:15;100334.44;;;15.22;100.00
58622;BME280;44389;51.578;5.456;2023-08-06T06:29:41;100332.69;;;15.21;100.00
58622;BME280;44389;51.578;5.456;2023-08-06T06:32:06;100343.06;;;15.11;100.00
58622;BME280;44389;51.578;5.456;2023-08-06T06:34:32;100342.22;;;15.12;100.00
58622;BME280;44389;51.578;5.456;2023-08-06T06:36:57;100348.22;;;15.02;100.00
58622;BME280;44389;51.578;5.456;2023-08-06T06:39:22;100346.50;;;15.01;100.00
58622;BME280;44389;51.578;5.456;2023-08-06T06:41:48;100349.94;;;14.94;100.00
58622;BME280;44389;51.578;5.456;2023-08-06T06:44:13;100353.38;;;14.90;100.00
58622;BME280;44389;51.578;5.456;2023-08-06T06:46:38;100370.66;;;14.86;100.00
58622;BME280;44389;51.578;5.456;2023-08-06T06:49:04;100357.66;;;14.81;100.00
58622;BME280;44389;51.578;5.456;2023-08-06T06:51:29;100361.16;;;14.84;100.00
58622;BME280;44389;51.578;5.456;2023-08-06T06:53:56;100362.00;;;14.87;100.00
58622;BME280;44389;51.578;5.456;2023-08-06T06:56:22;100363.78;;;14.91;100.00
58622;BME280;44389;51.578;5.456;2023-08-06T06:58:47;100360.28;;;14.91;100.00
58622;BME280;44389;51.578;5.456;2023-08-06T07:01:13;100364.66;;;15.01;100.00
58622;BME280;44389;51.578;5.456;2023-08-06T07:03:38;100375.09;;;15.12;100.00
58622;BME280;44389;51.578;5.456;2023-08-06T07:06:03;100370.78;;;15.23;100.00
58622;BME280;44389;51.578;5.456;2023-08-06T07:08:30;100375.97;;;15.22;100.00
58622;BME280;44389;51.578;5.456;2023-08-06T07:11:06;100381.22;;;15.34;100.00
58622;BME280;44389;51.578;5.456;2023-08-06T07:13:32;100388.97;;;15.31;100.00
58622;BME280;44389;51.578;5.456;2023-08-06T07:15:58;100383.78;;;15.31;100.00
58622;BME280;44389;51.578;5.456;2023-08-06T07:18:23;100384.63;;;15.25;100.00
58622;BME280;44389;51.578;5.456;2023-08-06T07:20:53;100392.38;;;15.08;100.00
58622;BME280;44389;51.578;5.456;2023-08-06T07:23:24;100398.34;;;14.89;100.00
58622;BME280;44389;51.578;5.456;2023-08-06T07:25:50;100396.53;;;14.71;100.00
58622;BME280;44389;51.578;5.456;2023-08-06T07:28:16;100404.97;;;14.43;100.00
58622;BME280;44389;51.578;5.456;2023-08-06T07:30:42;100409.19;;;14.26;100.00
58622;BME280;44389;51.578;5.456;2023-08-06T07:33:08;100420.28;;;14.09;100.00
58622;BME280;44389;51.578;5.456;2023-08-06T07:35:35;100431.34;;;13.91;100.00
58622;BME280;44389;51.578;5.456;2023-08-06T07:38:01;100417.41;;;13.77;100.00
58622;BME280;44389;51.578;5.456;2023-08-06T07:40:27;100436.28;;;13.66;100.00
58622;BME280;44389;51.578;5.456;2023-08-06T07:42:53;100418.91;;;13.55;100.00
58622;BME280;44389;51.578;5.456;2023-08-06T07:45:18;100439.63;;;13.55;100.00
58622;BME280;44389;51.578;5.456;2023-08-06T07:47:44;100437.81;;;13.47;100.00
58622;BME280;44389;51.578;5.456;2023-08-06T07:50:09;100438.56;;;13.39;100.00
58622;BME280;44389;51.578;5.456;2023-08-06T07:52:35;100433.31;;;13.34;100.00
58622;BME280;44389;51.578;5.456;2023-08-06T07:55:01;100443.69;;;13.36;100.00
58622;BME280;44389;51.578;5.456;2023-08-06T07:57:30;100441.84;;;13.25;100.00
58622;BME280;44389;51.578;5.456;2023-08-06T07:59:55;100444.44;;;13.25;100.00
58622;BME280;44389;51.578;5.456;2023-08-06T08:02:21;100448.66;;;13.18;100.00
58622;BME280;44389;51.578;5.456;2023-08-06T08:04:46;100449.53;;;13.21;100.00
58622;BME280;44389;51.578;5.456;2023-08-06T08:07:13;100449.50;;;13.14;100.00
58622;BME280;44389;51.578;5.456;2023-08-06T08:09:38;100451.25;;;13.17;100.00
58622;BME280;44389;51.578;5.456;2023-08-06T08:12:04;100446.81;;;13.10;100.00
58622;BME280;44389;51.578;5.456;2023-08-06T08:14:29;100442.47;;;13.07;100.00
58622;BME280;44389;51.578;5.456;2023-08-06T08:17:00;100450.22;;;13.04;100.00
58622;BME280;44389;51.578;5.456;2023-08-06T08:19:25;100454.47;;;12.99;100.00
58622;BME280;44389;51.578;5.456;2023-08-06T08:21:50;100455.31;;;12.98;100.00
58622;BME280;44389;51.578;5.456;2023-08-06T08:24:16;100463.00;;;12.95;100.00
58622;BME280;44389;51.578;5.456;2023-08-06T08:26:44;100469.06;;;12.94;100.00
58622;BME280;44389;51.578;5.456;2023-08-06T08:29:10;100477.69;;;12.96;100.00
58622;BME280;44389;51.578;5.456;2023-08-06T08:31:35;100473.41;;;12.98;100.00
58622;BME280;44389;51.578;5.456;2023-08-06T08:34:04;100478.63;;;13.01;100.00
58622;BME280;44389;51.578;5.456;2023-08-06T08:36:30;100486.47;;;13.07;100.00
58622;BME280;44389;51.578;5.456;2023-08-06T08:38:55;100481.38;;;13.12;100.00
58622;BME280;44389;51.578;5.456;2023-08-06T08:41:21;100480.50;;;13.13;100.00
58622;BME280;44389;51.578;5.456;2023-08-06T08:43:49;100497.78;;;13.15;100.00
58622;BME280;44389;51.578;5.456;2023-08-06T08:46:18;100485.75;;;13.17;100.00
58622;BME280;44389;51.578;5.456;2023-08-06T08:48:43;100486.69;;;13.26;100.00
58622;BME280;44389;51.578;5.456;2023-08-06T08:51:10;100495.38;;;13.31;100.00
58622;BME280;44389;51.578;5.456;2023-08-06T08:53:36;100499.72;;;13.32;100.00
58622;BME280;44389;51.578;5.456;2023-08-06T08:56:04;100496.31;;;13.36;100.00
58622;BME280;44389;51.578;5.456;2023-08-06T08:58:30;100496.44;;;13.42;100.00
58622;BME280;44389;51.578;5.456;2023-08-06T09:00:55;100505.91;;;13.40;100.00
58622;BME280;44389;51.578;5.456;2023-08-06T09:03:21;100510.19;;;13.40;100.00
58622;BME280;44389;51.578;5.456;2023-08-06T09:05:49;100503.28;;;13.37;100.00
58622;BME280;44389;51.578;5.456;2023-08-06T09:08:18;100518.75;;;13.34;100.00
58622;BME280;44389;51.578;5.456;2023-08-06T09:10:44;100525.72;;;13.38;100.00
58622;BME280;44389;51.578;5.456;2023-08-06T09:13:11;100526.66;;;13.45;100.00
58622;BME280;44389;51.578;5.456;2023-08-06T09:15:37;100534.41;;;13.43;100.00
58622;BME280;44389;51.578;5.456;2023-08-06T09:18:09;100535.34;;;13.47;100.00
58622;BME280;44389;51.578;5.456;2023-08-06T09:20:37;100541.53;;;13.60;100.00
58622;BME280;44389;51.578;5.456;2023-08-06T09:23:09;100539.81;;;13.62;100.00
58622;BME280;44389;51.578;5.456;2023-08-06T09:25:37;100546.72;;;13.60;100.00
58622;BME280;44389;51.578;5.456;2023-08-06T09:28:03;100553.56;;;13.55;100.00
58622;BME280;44389;51.578;5.456;2023-08-06T09:30:38;100560.50;;;13.60;100.00
58622;BME280;44389;51.578;5.456;2023-08-06T09:33:08;100558.81;;;13.62;100.00
58622;BME280;44389;51.578;5.456;2023-08-06T09:35:35;100559.66;;;13.60;100.00
58622;BME280;44389;51.578;5.456;2023-08-06T09:38:07;100564.84;;;13.60;100.00
58622;BME280;44389;51.578;5.456;2023-08-06T09:40:33;100559.59;;;13.57;100.00
58622;BME280;44389;51.578;5.456;2023-08-06T09:42:59;100563.09;;;13.59;100.00
58622;BME280;44389;51.578;5.456;2023-08-06T09:45:30;100567.53;;;13.68;100.00
58622;BME280;44389;51.578;5.456;2023-08-06T09:47:57;100564.91;;;13.66;100.00
58622;BME280;44389;51.578;5.456;2023-08-06T09:50:29;100576.13;;;13.66;100.00
58622;BME280;44389;51.578;5.456;2023-08-06T09:52:55;100572.69;;;13.66;100.00
58622;BME280;44389;51.578;5.456;2023-08-06T09:55:21;100576.97;;;13.65;100.00
58622;BME280;44389;51.578;5.456;2023-08-06T09:57:47;100583.06;;;13.69;100.00
58622;BME280;44389;51.578;5.456;2023-08-06T10:00:12;100576.97;;;13.64;100.00
58622;BME280;44389;51.578;5.456;2023-08-06T10:02:38;100587.31;;;13.64;100.00
58622;BME280;44389;51.578;5.456;2023-08-06T10:05:05;100592.53;;;13.67;100.00
58622;BME280;44389;51.578;5.456;2023-08-06T10:07:31;100583.03;;;13.66;100.00
58622;BME280;44389;51.578;5.456;2023-08-06T10:10:03;100592.53;;;13.67;100.00
58622;BME280;44389;51.578;5.456;2023-08-06T10:12:31;100590.00;;;13.70;100.00
58622;BME280;44389;51.578;5.456;2023-08-06T10:14:59;100591.84;;;13.79;100.00
58622;BME280;44389;51.578;5.456;2023-08-06T10:17:26;100592.75;;;13.84;100.00
58622;BME280;44389;51.578;5.456;2023-08-06T10:19:52;100601.41;;;13.86;100.00
58622;BME280;44389;51.578;5.456;2023-08-06T10:22:20;100602.25;;;13.83;100.00
58622;BME280;44389;51.578;5.456;2023-08-06T10:27:11;100594.44;;;13.80;100.00
58622;BME280;44389;51.578;5.456;2023-08-06T10:29:38;100601.31;;;13.80;100.00
58622;BME280;44389;51.578;5.456;2023-08-06T10:32:03;100601.47;;;13.91;100.00
58622;BME280;44389;51.578;5.456;2023-08-06T10:34:54;100603.19;;;13.90;100.00
58622;BME280;44389;51.578;5.456;2023-08-06T10:37:36;100605.81;;;13.92;100.00
58622;BME280;44389;51.578;5.456;2023-08-06T10:40:02;100609.19;;;13.88;100.00
58622;BME280;44389;51.578;5.456;2023-08-06T10:42:29;100614.50;;;13.97;100.00
58622;BME280;44389;51.578;5.456;2023-08-06T10:45:14;100612.72;;;13.93;100.00
58622;BME280;44389;51.578;5.456;2023-08-06T10:47:41;100616.16;;;13.92;100.00
58622;BME280;44389;51.578;5.456;2023-08-06T10:50:07;100611.91;;;13.97;100.00
58622;BME280;44389;51.578;5.456;2023-08-06T10:52:34;100619.78;;;14.06;100.00
58622;BME280;44389;51.578;5.456;2023-08-06T10:54:59;100617.22;;;14.08;100.00
58622;BME280;44389;51.578;5.456;2023-08-06T10:57:25;100620.81;;;14.21;100.00
58622;BME280;44389;51.578;5.456;2023-08-06T10:59:50;100623.41;;;14.21;100.00
58622;BME280;44389;51.578;5.456;2023-08-06T11:02:16;100612.13;;;14.17;100.00
58622;BME280;44389;51.578;5.456;2023-08-06T11:04:41;100619.81;;;14.09;100.00
58622;BME280;44389;51.578;5.456;2023-08-06T11:07:07;100627.56;;;14.05;100.00
58622;BME280;44389;51.578;5.456;2023-08-06T11:09:32;100611.00;;;13.95;100.00
58622;BME280;44389;51.578;5.456;2023-08-06T11:11:57;100622.13;;;13.86;100.00
58622;BME280;44389;51.578;5.456;2023-08-06T11:14:23;100628.03;;;13.74;100.00
58622;BME280;44389;51.578;5.456;2023-08-06T11:16:48;100628.78;;;13.65;100.00
58622;BME280;44389;51.578;5.456;2023-08-06T11:19:15;100630.44;;;13.60;100.00
58622;BME280;44389;51.578;5.456;2023-08-06T11:21:41;100627.81;;;13.59;100.00
58622;BME280;44389;51.578;5.456;2023-08-06T11:24:09;100634.03;;;13.70;100.00
58622;BME280;44389;51.578;5.456;2023-08-06T11:26:36;100629.56;;;13.60;100.00
58622;BME280;44389;51.578;5.456;2023-08-06T11:29:02;100629.66;;;13.66;100.00
58622;BME280;44389;51.578;5.456;2023-08-06T11:31:28;100626.34;;;13.76;100.00
58622;BME280;44389;51.578;5.456;2023-08-06T11:33:55;100632.50;;;13.88;100.00
58622;BME280;44389;51.578;5.456;2023-08-06T11:36:33;100637.00;;;14.01;100.00
58622;BME280;44389;51.578;5.456;2023-08-06T11:39:00;100632.66;;;13.97;100.00
58622;BME280;44389;51.578;5.456;2023-08-06T11:41:28;100639.69;;;14.07;100.00
58622;BME280;44389;51.578;5.456;2023-08-06T11:43:53;100641.38;;;14.08;100.00
58622;BME280;44389;51.578;5.456;2023-08-06T11:46:19;100644.88;;;14.09;100.00
58622;BME280;44389;51.578;5.456;2023-08-06T11:49:00;100638.03;;;14.14;100.00
58622;BME280;44389;51.578;5.456;2023-08-06T11:51:26;100640.72;;;14.23;100.00
58622;BME280;44389;51.578;5.456;2023-08-06T11:53:55;100637.31;;;14.30;100.00
58622;BME280;44389;51.578;5.456;2023-08-06T11:56:21;100644.31;;;14.35;100.00
58622;BME280;44389;51.578;5.456;2023-08-06T11:58:47;100638.34;;;14.45;100.00
58622;BME280;44389;51.578;5.456;2023-08-06T12:01:13;100646.16;;;14.46;100.00
58622;BME280;44389;51.578;5.456;2023-08-06T12:03:39;100641.91;;;14.56;100.00
58622;BME280;44389;51.578;5.456;2023-08-06T12:06:05;100645.50;;;14.68;100.00
58622;BME280;44389;51.578;5.456;2023-08-06T12:08:30;100646.47;;;14.77;100.00
58622;BME280;44389;51.578;5.456;2023-08-06T12:10:55;100643.06;;;14.85;100.00
58622;BME280;44389;51.578;5.456;2023-08-06T12:13:21;100653.56;;;14.95;100.00
58622;BME280;44389;51.578;5.456;2023-08-06T12:15:46;100654.47;;;15.02;100.00
58622;BME280;44389;51.578;5.456;2023-08-06T12:18:11;100656.28;;;15.11;100.00
58622;BME280;44389;51.578;5.456;2023-08-06T12:20:37;100655.38;;;15.10;100.00
58622;BME280;44389;51.578;5.456;2023-08-06T12:23:03;100657.31;;;15.36;100.00
58622;BME280;44389;51.578;5.456;2023-08-06T12:25:29;100654.75;;;15.44;100.00
58622;BME280;44389;51.578;5.456;2023-08-06T12:27:54;100648.00;;;15.68;100.00
58622;BME280;44389;51.578;5.456;2023-08-06T12:30:20;100667.03;;;15.67;100.00
58622;BME280;44389;51.578;5.456;2023-08-06T12:32:45;100659.28;;;15.77;100.00
58622;BME280;44389;51.578;5.456;2023-08-06T12:35:10;100662.03;;;15.99;100.00
58622;BME280;44389;51.578;5.456;2023-08-06T12:37:36;100665.47;;;15.98;100.00
58622;BME280;44389;51.578;5.456;2023-08-06T12:40:03;100663.78;;;16.09;100.00
58622;BME280;44389;51.578;5.456;2023-08-06T12:42:29;100664.59;;;15.93;100.00